Pursley, Texas
Current Conditions -  °F | °C
As of 10:53 AM on Saturday 25 Oct 2014 (Local Time) from KCRS Reporting Station
Clear Clear  
Wind Chill: 78°   Ceiling: Unl
Heat Index: 79°   Visibility: 10mi
Dew Point: 59°   Wind: 12mph
Humidity: 52%   Direction: 200°SSW
Pressure: 30.19"   Gusts: NA
Location:  31.9458°N, 96.5713°W
Report Text: KCRS 251553Z AUTO 20010KT 10SM CLR 26/15 A3019 RMK AO2 SLP219 T02560150
Loading
Personal Weather Stations






























Interactive Weather Map New forecast layout! Learn more

10-Day Weather Forecast

Advertisements
Track Severe Weather on mobile